Terminal Aerodrome Forecast
Issued by NWS

Home | Current Version | Previous Version | Text Only | Print | Product List | Glossary On
Versions: 1 2 3 4 5 6 7 8 9 10 11 12 13 14 15 16 17 18 19 20 21 22 23 24
000
FTUS43 KLSX 251300 AAA
TAFSUS
TAF AMD
KSUS 251315Z 2513/2612 22009KT P6SM -RA OVC040
      TEMPO 2513/2515 BKN020
     FM251800 31011KT 4SM -RA BR SCT007 OVC010
     FM252300 35015G25KT 2SM -SN BR OVC006
     FM260100 33012KT P6SM OVC012
     FM261000 32006KT P6SM SCT010=

USA.gov is the U.S. government's official web portal to all federal, state and local government web resources and services.